createdAt,value
2022-12-26T00:01:01.080Z,100081.66
2022-12-26T00:03:30.557Z,100084.28
2022-12-26T00:05:59.899Z,100086.63
2022-12-26T00:08:27.714Z,100080.72
2022-12-26T00:10:55.596Z,100082.59
2022-12-26T00:13:40.071Z,100074.97
2022-12-26T00:16:10.133Z,100083.66
2022-12-26T00:18:38.441Z,100073.84
2022-12-26T00:21:08.102Z,100071.09
2022-12-26T00:23:36.708Z,100066.53
2022-12-26T00:26:05.125Z,100079.72
2022-12-26T00:28:33.312Z,100077.59
2022-12-26T00:31:05.459Z,100063.66
2022-12-26T00:33:34.799Z,100045.75
2022-12-26T00:36:03.718Z,100054.84
2022-12-26T00:38:33.335Z,100034.38
2022-12-26T00:41:01.243Z,100059.34
2022-12-26T00:43:29.035Z,100067.72
2022-12-26T00:45:56.977Z,100058.38
2022-12-26T00:48:24.869Z,100048.91
2022-12-26T00:50:52.856Z,100069.06
2022-12-26T00:53:21.177Z,100066.47
2022-12-26T00:55:50.620Z,100061.72
2022-12-26T00:58:18.478Z,100082.31
2022-12-26T01:00:46.546Z,100076.16
2022-12-26T01:03:15.349Z,100063.00
2022-12-26T01:05:43.709Z,100062.91
2022-12-26T01:08:23.208Z,100065.25
2022-12-26T01:10:54.246Z,100065.00
2022-12-26T01:13:22.691Z,100085.66
2022-12-26T01:15:51.893Z,100086.84
2022-12-26T01:18:20.206Z,100077.69
2022-12-26T01:20:48.827Z,100091.03
2022-12-26T01:23:18.071Z,100087.81
2022-12-26T01:26:15.771Z,100088.13
2022-12-26T01:28:35.425Z,100091.53
2022-12-26T01:31:04.107Z,100097.13
2022-12-26T01:33:32.092Z,100100.44
2022-12-26T01:36:00.613Z,100091.16
2022-12-26T01:38:28.724Z,100077.69
2022-12-26T01:41:10.409Z,100083.72
2022-12-26T01:43:58.702Z,100100.75
2022-12-26T01:46:33.803Z,100094.28
2022-12-26T01:49:07.646Z,100110.44
2022-12-26T01:51:40.105Z,100110.78
2022-12-26T01:54:41.456Z,100108.50
2022-12-26T01:57:01.041Z,100098.56
2022-12-26T01:59:34.294Z,100106.31
2022-12-26T02:02:02.745Z,100112.91
2022-12-26T02:04:52.886Z,100114.19
2022-12-26T02:07:21.052Z,100121.31
2022-12-26T02:09:48.872Z,100100.47
2022-12-26T02:12:34.276Z,100107.66
2022-12-26T02:15:08.025Z,100108.25
2022-12-26T02:17:35.908Z,100118.56
2022-12-26T02:20:16.544Z,100103.06
2022-12-26T02:23:15.839Z,100112.41
2022-12-26T02:26:16.259Z,100123.94
2022-12-26T02:29:19.045Z,100119.31
2022-12-26T02:31:56.483Z,100114.72
2022-12-26T02:34:31.698Z,100132.72
2022-12-26T02:37:24.280Z,100145.06
2022-12-26T02:40:04.231Z,100141.00
2022-12-26T02:42:42.600Z,100137.34
2022-12-26T02:45:36.041Z,100123.09
2022-12-26T02:48:12.241Z,100109.00
2022-12-26T02:51:10.170Z,100131.59
2022-12-26T02:54:02.916Z,100121.28
2022-12-26T02:56:53.362Z,100136.38
2022-12-26T02:59:56.516Z,100126.53
2022-12-26T03:02:54.480Z,100125.16
2022-12-26T03:05:55.863Z,100139.59
2022-12-26T03:08:47.628Z,100124.41
2022-12-26T03:11:33.611Z,100115.41
2022-12-26T03:14:11.825Z,100119.63
2022-12-26T03:16:58.172Z,100134.69
2022-12-26T03:19:29.658Z,100132.00
2022-12-26T03:22:01.226Z,100141.22
2022-12-26T03:24:49.888Z,100138.25
2022-12-26T03:27:16.723Z,100125.84
2022-12-26T03:30:10.416Z,100108.84
2022-12-26T03:32:43.933Z,100121.31
2022-12-26T03:35:13.951Z,100132.44
2022-12-26T03:37:50.395Z,100123.09
2022-12-26T03:40:47.346Z,100139.22
2022-12-26T03:43:42.245Z,100116.81
2022-12-26T03:46:36.096Z,100117.28
2022-12-26T03:49:27.587Z,100111.34
2022-12-26T03:52:18.830Z,100105.31
2022-12-26T03:55:13.073Z,100100.94
2022-12-26T03:58:06.719Z,100081.28
2022-12-26T04:00:54.225Z,100116.69
2022-12-26T04:03:42.927Z,100108.28
2022-12-26T04:06:36.121Z,100109.63
2022-12-26T04:09:27.289Z,100117.28
2022-12-26T04:12:21.579Z,100111.72
2022-12-26T04:15:12.891Z,100115.91
2022-12-26T04:18:03.497Z,100114.56
2022-12-26T04:20:37.257Z,100113.06
2022-12-26T04:23:30.141Z,100099.88
2022-12-26T04:26:23.884Z,100094.34
2022-12-26T04:29:10.907Z,100108.72
2022-12-26T04:32:04.361Z,100109.25
2022-12-26T04:35:01.628Z,100116.16
2022-12-26T04:37:49.257Z,100124.56
2022-12-26T04:40:38.467Z,100131.69
2022-12-26T04:43:48.377Z,100136.56
2022-12-26T04:46:16.547Z,100140.00
2022-12-26T04:49:03.861Z,100122.88
2022-12-26T04:51:31.773Z,100132.28
2022-12-26T04:53:59.656Z,100141.66
2022-12-26T04:56:27.478Z,100121.59
2022-12-26T04:58:55.336Z,100110.09
2022-12-26T05:01:42.574Z,100125.38
2022-12-26T05:04:32.105Z,100129.84
2022-12-26T05:07:18.951Z,100120.44
2022-12-26T05:09:47.916Z,100125.63
2022-12-26T05:12:15.634Z,100121.50
2022-12-26T05:14:43.596Z,100098.28
2022-12-26T05:17:32.704Z,100097.69
2022-12-26T05:20:18.534Z,100098.75
2022-12-26T05:23:05.741Z,100104.56
2022-12-26T05:25:54.265Z,100078.38
2022-12-26T05:28:40.327Z,100095.44
2022-12-26T05:31:08.445Z,100113.66
2022-12-26T05:33:55.261Z,100123.63
2022-12-26T05:36:25.211Z,100129.03
2022-12-26T05:38:52.912Z,100120.81
2022-12-26T05:41:20.639Z,100127.97
2022-12-26T05:43:51.778Z,100130.06
2022-12-26T05:46:19.633Z,100135.28
2022-12-26T05:48:48.782Z,100138.22
2022-12-26T05:51:16.511Z,100133.72
2022-12-26T05:53:44.259Z,100141.88
2022-12-26T05:56:14.474Z,100132.88
2022-12-26T05:58:42.648Z,100145.69
2022-12-26T06:01:13.109Z,100155.97
2022-12-26T06:03:41.441Z,100153.41
2022-12-26T06:06:11.766Z,100156.94
2022-12-26T06:08:39.912Z,100132.16
2022-12-26T06:11:09.386Z,100138.66
2022-12-26T06:13:37.252Z,100133.72
2022-12-26T06:16:06.762Z,100151.84
2022-12-26T06:18:34.573Z,100165.81
2022-12-26T06:21:04.930Z,100161.63
2022-12-26T06:23:34.087Z,100153.59
2022-12-26T06:26:01.950Z,100158.06
2022-12-26T06:28:30.082Z,100163.59
2022-12-26T06:31:03.914Z,100161.75
2022-12-26T06:33:32.274Z,100171.88
2022-12-26T06:36:04.925Z,100175.03
2022-12-26T06:38:34.352Z,100185.75
2022-12-26T06:41:02.282Z,100184.06
2022-12-26T06:43:30.084Z,100178.69
2022-12-26T06:45:58.427Z,100172.25
2022-12-26T06:48:26.834Z,100171.78
2022-12-26T06:50:55.412Z,100171.66
2022-12-26T06:53:24.026Z,100183.28
2022-12-26T06:55:53.338Z,100178.75
2022-12-26T06:58:21.430Z,100177.94
2022-12-26T07:00:49.348Z,100166.06
2022-12-26T07:03:17.047Z,100165.66
2022-12-26T07:05:44.765Z,100169.44
2022-12-26T07:08:12.499Z,100177.91
2022-12-26T07:10:40.912Z,100169.06
2022-12-26T07:13:09.960Z,100172.94
2022-12-26T07:15:37.692Z,100173.47
2022-12-26T07:18:05.511Z,100167.88
2022-12-26T07:20:33.352Z,100158.09
2022-12-26T07:23:01.154Z,100173.94
2022-12-26T07:25:28.928Z,100169.53
2022-12-26T07:27:56.693Z,100179.25
2022-12-26T07:30:25.851Z,100170.75
2022-12-26T07:32:53.634Z,100183.91
2022-12-26T07:35:21.449Z,100193.97
2022-12-26T07:37:49.365Z,100195.03
2022-12-26T07:40:17.364Z,100203.31
2022-12-26T07:42:45.064Z,100202.25
2022-12-26T07:45:12.793Z,100216.16
2022-12-26T07:47:42.332Z,100233.22
2022-12-26T07:50:11.106Z,100208.88
2022-12-26T07:52:38.871Z,100209.22
2022-12-26T07:55:07.568Z,100235.09
2022-12-26T07:57:50.760Z,100239.09
2022-12-26T08:00:20.093Z,100237.94
2022-12-26T08:02:51.031Z,100237.44
2022-12-26T08:05:20.863Z,100227.16
2022-12-26T08:07:49.353Z,100246.56
2022-12-26T08:10:17.902Z,100242.22
2022-12-26T08:12:45.713Z,100212.72
2022-12-26T08:15:13.990Z,100238.44
2022-12-26T08:17:41.803Z,100239.16
2022-12-26T08:20:11.532Z,100227.44
2022-12-26T08:22:39.428Z,100197.00
2022-12-26T08:25:08.380Z,100213.53
2022-12-26T08:27:36.254Z,100207.06
2022-12-26T08:30:04.917Z,100184.00
2022-12-26T08:32:32.766Z,100214.06
2022-12-26T08:35:00.656Z,100215.72
2022-12-26T08:37:30.022Z,100236.78
2022-12-26T08:39:57.861Z,100199.66
2022-12-26T08:42:25.702Z,100201.19
2022-12-26T08:44:53.476Z,100219.88
2022-12-26T08:47:21.923Z,100228.16
2022-12-26T08:49:49.736Z,100242.91
2022-12-26T08:52:17.552Z,100252.03
2022-12-26T08:54:46.729Z,100233.25
2022-12-26T08:57:15.603Z,100247.81
2022-12-26T08:59:43.464Z,100253.75
2022-12-26T09:02:12.514Z,100265.47
2022-12-26T09:04:40.535Z,100265.28
2022-12-26T09:07:10.050Z,100273.97
2022-12-26T09:09:37.847Z,100276.50
2022-12-26T09:12:07.325Z,100276.38
2022-12-26T09:14:35.153Z,100282.38
2022-12-26T09:17:03.110Z,100281.25
2022-12-26T09:19:32.393Z,100290.16
2022-12-26T09:22:14.441Z,100287.63
2022-12-26T09:24:42.492Z,100296.97
2022-12-26T09:27:11.887Z,100301.38
2022-12-26T09:29:41.695Z,100293.25
2022-12-26T09:32:12.201Z,100315.50
2022-12-26T09:34:40.074Z,100325.38
2022-12-26T09:37:07.926Z,100326.84
2022-12-26T09:39:36.078Z,100319.91
2022-12-26T09:42:18.283Z,100303.97
2022-12-26T09:44:54.844Z,100313.91
2022-12-26T09:47:34.124Z,100311.41
2022-12-26T09:50:06.515Z,100304.09
2022-12-26T09:52:41.500Z,100298.25
2022-12-26T09:55:26.358Z,100281.25
2022-12-26T09:57:58.263Z,100281.19
2022-12-26T10:00:30.393Z,100300.88
2022-12-26T10:02:59.952Z,100316.22
2022-12-26T10:05:35.505Z,100311.75
2022-12-26T10:08:23.332Z,100307.09
2022-12-26T10:10:59.077Z,100307.31
2022-12-26T10:13:35.299Z,100327.31
2022-12-26T10:16:09.981Z,100322.50
2022-12-26T10:18:50.185Z,100316.84
2022-12-26T10:21:30.964Z,100307.81
2022-12-26T10:24:03.702Z,100313.81
2022-12-26T10:26:35.536Z,100305.53
2022-12-26T10:29:14.752Z,100310.38
2022-12-26T10:31:47.742Z,100304.59
2022-12-26T10:34:21.040Z,100300.31
2022-12-26T10:36:51.323Z,100320.03
2022-12-26T10:39:24.235Z,100303.78
2022-12-26T10:41:54.429Z,100314.38
2022-12-26T10:44:27.546Z,100333.66
2022-12-26T10:47:12.941Z,100330.44
2022-12-26T10:49:41.037Z,100326.88
2022-12-26T10:52:11.738Z,100338.28
2022-12-26T10:54:40.043Z,100346.28
2022-12-26T10:57:09.099Z,100350.34
2022-12-26T10:59:42.878Z,100344.50
2022-12-26T11:02:17.657Z,100344.06
2022-12-26T11:05:16.103Z,100352.66
2022-12-26T11:08:08.329Z,100340.72
2022-12-26T11:10:36.478Z,100342.81
2022-12-26T11:13:09.409Z,100350.53
2022-12-26T11:15:41.668Z,100350.34
2022-12-26T11:18:20.604Z,100345.16
2022-12-26T11:20:49.597Z,100352.72
2022-12-26T11:23:25.612Z,100338.03
2022-12-26T11:25:55.576Z,100341.25
2022-12-26T11:28:30.245Z,100334.13
2022-12-26T11:31:00.998Z,100343.16
2022-12-26T11:33:31.432Z,100343.25
2022-12-26T11:36:06.737Z,100343.16
2022-12-26T11:38:45.478Z,100348.81
2022-12-26T11:41:32.596Z,100343.63
2022-12-26T11:44:06.995Z,100352.16
2022-12-26T11:46:40.622Z,100354.91
2022-12-26T11:49:18.069Z,100347.28
2022-12-26T11:51:57.174Z,100342.22
2022-12-26T11:54:30.673Z,100344.69
2022-12-26T11:57:20.197Z,100344.59
2022-12-26T11:59:49.264Z,100335.22
2022-12-26T12:02:26.324Z,100341.84
2022-12-26T12:04:58.589Z,100324.63
2022-12-26T12:07:45.201Z,100333.19
2022-12-26T12:10:47.875Z,100342.81
2022-12-26T12:13:26.351Z,100333.19
2022-12-26T12:16:14.868Z,100338.63
2022-12-26T12:18:54.712Z,100328.78
2022-12-26T12:21:32.919Z,100322.88
2022-12-26T12:24:20.289Z,100302.00
2022-12-26T12:27:01.618Z,100319.66
2022-12-26T12:29:42.815Z,100324.63
2022-12-26T12:32:18.076Z,100318.50
2022-12-26T12:35:07.781Z,100307.00
2022-12-26T12:38:01.294Z,100306.50
2022-12-26T12:40:36.951Z,100308.03
2022-12-26T12:43:15.464Z,100280.13
2022-12-26T12:45:53.294Z,100282.53
2022-12-26T12:48:35.109Z,100283.09
2022-12-26T12:51:14.866Z,100299.53
2022-12-26T12:54:00.253Z,100296.81
2022-12-26T12:56:42.198Z,100282.00
2022-12-26T12:59:21.004Z,100309.91
2022-12-26T13:01:52.649Z,100307.63
2022-12-26T13:04:26.144Z,100287.53
2022-12-26T13:06:59.914Z,100297.34
2022-12-26T13:09:33.978Z,100300.50
2022-12-26T13:12:04.614Z,100293.25
2022-12-26T13:14:37.344Z,100288.75
2022-12-26T13:17:10.543Z,100288.03
2022-12-26T13:19:42.729Z,100271.41
2022-12-26T13:22:20.462Z,100288.97
2022-12-26T13:24:52.009Z,100282.19
2022-12-26T13:27:25.221Z,100288.38
2022-12-26T13:29:53.879Z,100290.53
2022-12-26T13:32:24.612Z,100279.53
2022-12-26T13:34:53.852Z,100282.38
2022-12-26T13:37:59.000Z,100282.50
2022-12-26T13:40:29.903Z,100277.06
2022-12-26T13:43:22.748Z,100269.34
2022-12-26T13:45:57.465Z,100266.03
2022-12-26T13:49:08.646Z,100259.53
2022-12-26T13:51:51.868Z,100258.69
2022-12-26T13:54:23.141Z,100257.72
2022-12-26T13:57:14.105Z,100246.84
2022-12-26T13:59:49.120Z,100248.38
2022-12-26T14:03:16.003Z,100241.84
2022-12-26T14:05:36.913Z,100249.81
2022-12-26T14:08:12.793Z,100274.31
2022-12-26T14:10:59.475Z,100297.50
2022-12-26T14:13:50.899Z,100309.19
2022-12-26T14:16:27.271Z,100321.81
2022-12-26T14:19:14.006Z,100305.41
2022-12-26T14:21:52.265Z,100315.66
2022-12-26T14:24:31.373Z,100322.53
2022-12-26T14:27:23.442Z,100291.00
2022-12-26T14:29:59.478Z,100305.69
2022-12-26T14:32:37.189Z,100318.25
2022-12-26T14:35:15.220Z,100312.34
2022-12-26T14:37:50.631Z,100328.78
2022-12-26T14:40:31.104Z,100320.03
2022-12-26T14:43:31.383Z,100328.19
2022-12-26T14:46:00.264Z,100322.31
2022-12-26T14:48:55.675Z,100350.03
2022-12-26T14:51:39.549Z,100330.69
2022-12-26T14:54:22.034Z,100324.25
2022-12-26T14:56:51.588Z,100319.19
2022-12-26T14:59:29.455Z,100321.03
2022-12-26T15:02:11.607Z,100322.94
2022-12-26T15:04:53.714Z,100321.59
2022-12-26T15:07:48.467Z,100311.84
2022-12-26T15:10:43.148Z,100315.63
2022-12-26T15:13:49.434Z,100319.75
2022-12-26T15:16:42.072Z,100321.41
2022-12-26T15:19:43.497Z,100312.13
2022-12-26T15:22:50.935Z,100340.75
2022-12-26T15:26:15.479Z,100342.94
2022-12-26T15:29:18.765Z,100348.81
2022-12-26T15:32:00.671Z,100329.63
2022-12-26T15:34:50.312Z,100358.97
2022-12-26T15:37:33.746Z,100331.56
2022-12-26T15:40:11.614Z,100336.09
2022-12-26T15:42:51.367Z,100334.63
2022-12-26T15:45:34.544Z,100301.78
2022-12-26T15:48:11.817Z,100331.03
2022-12-26T15:50:54.934Z,100328.19
2022-12-26T15:53:33.820Z,100313.59
2022-12-26T15:56:35.567Z,100336.41
2022-12-26T15:59:28.125Z,100314.31
2022-12-26T16:01:56.655Z,100325.69
2022-12-26T16:04:32.245Z,100312.53
2022-12-26T16:07:09.930Z,100311.38
2022-12-26T16:09:44.432Z,100322.22
2022-12-26T16:12:23.082Z,100321.94
2022-12-26T16:15:00.497Z,100329.94
2022-12-26T16:17:29.019Z,100328.69
2022-12-26T16:19:59.549Z,100349.91
2022-12-26T16:22:46.595Z,100361.25
2022-12-26T16:25:18.739Z,100359.81
2022-12-26T16:27:48.031Z,100368.38
2022-12-26T16:30:18.805Z,100360.06
2022-12-26T16:32:47.537Z,100373.22
2022-12-26T16:38:32.578Z,100395.09
2022-12-26T16:41:00.753Z,100412.59
2022-12-26T16:43:30.923Z,100401.41
2022-12-26T16:46:02.831Z,100396.44
2022-12-26T16:48:34.161Z,100422.25
2022-12-26T16:51:05.873Z,100412.09
2022-12-26T16:53:51.121Z,100423.38
2022-12-26T16:56:27.568Z,100445.06
2022-12-26T16:59:04.729Z,100443.63
2022-12-26T17:01:34.439Z,100449.47
2022-12-26T17:04:05.893Z,100399.22
2022-12-26T17:06:38.637Z,100416.09
2022-12-26T17:09:09.117Z,100423.38
2022-12-26T17:11:41.828Z,100433.63
2022-12-26T17:14:20.094Z,100424.25
2022-12-26T17:16:48.173Z,100435.69
2022-12-26T17:19:20.839Z,100450.75
2022-12-26T17:22:21.789Z,100447.41
2022-12-26T17:24:50.878Z,100416.56
2022-12-26T17:27:23.300Z,100408.44
2022-12-26T17:29:57.607Z,100415.31
2022-12-26T17:32:36.478Z,100442.41
2022-12-26T17:35:07.527Z,100441.97
2022-12-26T17:37:38.085Z,100437.59
2022-12-26T17:40:20.273Z,100414.06
2022-12-26T17:42:49.968Z,100426.16
2022-12-26T17:45:20.227Z,100391.34
2022-12-26T17:47:48.193Z,100384.25
2022-12-26T17:50:16.296Z,100391.53
2022-12-26T17:52:45.958Z,100414.28
2022-12-26T17:55:19.679Z,100428.84
2022-12-26T17:57:48.699Z,100395.09
2022-12-26T18:00:20.906Z,100465.53
2022-12-26T18:02:49.312Z,100474.06
2022-12-26T18:05:18.520Z,100488.25
2022-12-26T18:07:52.699Z,100461.78
2022-12-26T18:10:23.664Z,100467.81
2022-12-26T18:12:52.986Z,100455.72
2022-12-26T18:15:21.684Z,100509.09
2022-12-26T18:17:51.444Z,100516.19
2022-12-26T18:20:21.675Z,100494.50
2022-12-26T18:22:52.621Z,100514.53
2022-12-26T18:25:22.369Z,100500.13
2022-12-26T18:27:51.207Z,100528.72
2022-12-26T18:30:25.825Z,100541.81
2022-12-26T18:32:55.241Z,100543.91
2022-12-26T18:35:23.613Z,100558.28
2022-12-26T18:37:54.101Z,100537.22
2022-12-26T18:40:33.915Z,100570.56
2022-12-26T18:43:03.745Z,100571.63
2022-12-26T18:45:32.317Z,100571.00
2022-12-26T18:48:00.963Z,100584.13
2022-12-26T18:50:30.743Z,100588.69
2022-12-26T18:52:59.998Z,100594.34
2022-12-26T18:55:28.561Z,100596.78
2022-12-26T18:57:56.493Z,100610.72
2022-12-26T19:00:25.439Z,100610.50
2022-12-26T19:02:56.461Z,100598.56
2022-12-26T19:05:27.612Z,100618.50
2022-12-26T19:07:55.649Z,100617.00
2022-12-26T19:10:29.447Z,100623.13
2022-12-26T19:13:04.780Z,100634.69
2022-12-26T19:15:35.184Z,100639.72
2022-12-26T19:18:04.035Z,100642.81
2022-12-26T19:20:32.045Z,100643.41
2022-12-26T19:22:59.978Z,100620.22
2022-12-26T19:25:29.458Z,100627.06
2022-12-26T19:28:00.621Z,100637.72
2022-12-26T19:30:32.362Z,100663.19
2022-12-26T19:33:05.189Z,100682.81
2022-12-26T19:35:33.321Z,100686.03
2022-12-26T19:38:01.213Z,100664.69
2022-12-26T19:40:31.069Z,100693.03
2022-12-26T19:42:58.975Z,100694.09
2022-12-26T19:45:27.022Z,100705.94
2022-12-26T19:47:55.119Z,100703.13
2022-12-26T19:50:23.184Z,100713.75
2022-12-26T19:52:51.124Z,100695.97
2022-12-26T19:55:19.244Z,100708.66
2022-12-26T19:57:48.530Z,100723.09
2022-12-26T20:00:16.767Z,100726.22
2022-12-26T20:02:45.839Z,100728.41
2022-12-26T20:05:14.838Z,100725.00
2022-12-26T20:07:42.798Z,100733.06
2022-12-26T20:10:11.252Z,100722.50
2022-12-26T20:12:39.128Z,100754.16
2022-12-26T20:15:09.247Z,100738.22
2022-12-26T20:17:37.265Z,100745.50
2022-12-26T20:20:06.891Z,100753.78
2022-12-26T20:22:34.687Z,100740.97
2022-12-26T20:25:02.625Z,100759.06
2022-12-26T20:27:30.439Z,100765.81
2022-12-26T20:29:58.303Z,100785.88
2022-12-26T20:32:27.567Z,100791.50
2022-12-26T20:34:55.583Z,100793.69
2022-12-26T20:37:23.410Z,100798.06
2022-12-26T20:39:51.377Z,100811.59
2022-12-26T20:42:19.657Z,100805.19
2022-12-26T20:44:47.498Z,100833.28
2022-12-26T20:47:15.464Z,100837.84
2022-12-26T20:49:44.816Z,100840.31
2022-12-26T20:52:13.129Z,100810.06
2022-12-26T20:54:41.080Z,100848.16
2022-12-26T20:57:09.128Z,100866.22
2022-12-26T20:59:37.237Z,100859.06
2022-12-26T21:02:06.058Z,100865.03
2022-12-26T21:04:34.321Z,100859.44
2022-12-26T21:07:03.649Z,100874.59
2022-12-26T21:09:53.842Z,100878.53
2022-12-26T21:12:22.037Z,100891.47
2022-12-26T21:14:50.043Z,100876.88
2022-12-26T21:17:19.564Z,100890.16
2022-12-26T21:19:47.447Z,100914.63
2022-12-26T21:22:16.897Z,100888.03
2022-12-26T21:24:45.396Z,100911.03
2022-12-26T21:27:13.670Z,100932.41
2022-12-26T21:29:41.717Z,100906.97
2022-12-26T21:32:09.666Z,100910.06
2022-12-26T21:34:38.931Z,100928.66
2022-12-26T21:37:24.349Z,100954.06
2022-12-26T21:39:53.729Z,100963.97
2022-12-26T21:42:21.653Z,100941.66
2022-12-26T21:44:49.549Z,100972.97
2022-12-26T21:47:17.698Z,100971.28
2022-12-26T21:49:45.689Z,100970.31
2022-12-26T21:52:14.138Z,100978.47
2022-12-26T21:54:59.791Z,100990.25
2022-12-26T21:57:30.624Z,100999.69
2022-12-26T21:59:59.172Z,100997.03
2022-12-26T22:02:46.595Z,101008.00
2022-12-26T22:05:15.358Z,101019.38
2022-12-26T22:07:43.812Z,101029.47
2022-12-26T22:10:34.673Z,101031.16
2022-12-26T22:13:03.372Z,101027.13
2022-12-26T22:15:49.155Z,101049.03
2022-12-26T22:18:17.159Z,101015.25
2022-12-26T22:20:46.084Z,101058.97
2022-12-26T22:23:14.621Z,101076.00
2022-12-26T22:25:42.632Z,101075.16
2022-12-26T22:28:11.893Z,101082.91
2022-12-26T22:30:39.712Z,101088.16
2022-12-26T22:33:07.637Z,101097.75
2022-12-26T22:35:35.430Z,101091.00
2022-12-26T22:38:03.260Z,101100.63
2022-12-26T22:40:31.094Z,101109.03
2022-12-26T22:42:58.853Z,101116.47
2022-12-26T22:45:27.985Z,101110.03
2022-12-26T22:47:55.947Z,101101.97
2022-12-26T22:50:23.827Z,101120.00
2022-12-26T22:52:52.129Z,101136.16
2022-12-26T22:55:19.979Z,101142.03
2022-12-26T22:57:52.324Z,101132.44
2022-12-26T23:00:20.478Z,101144.91
2022-12-26T23:02:49.885Z,101119.81
2022-12-26T23:05:18.549Z,101146.44
2022-12-26T23:07:47.130Z,101157.06
2022-12-26T23:10:19.988Z,101156.50
2022-12-26T23:12:51.172Z,101159.75
2022-12-26T23:15:21.952Z,101161.59
2022-12-26T23:18:17.700Z,101155.00
2022-12-26T23:21:05.590Z,101164.28
2022-12-26T23:23:34.366Z,101154.31
2022-12-26T23:26:02.705Z,101156.84
2022-12-26T23:28:48.592Z,101173.84
2022-12-26T23:31:16.768Z,101160.38
2022-12-26T23:33:45.980Z,101164.28
2022-12-26T23:36:14.671Z,101156.16
2022-12-26T23:38:42.525Z,101159.38
2022-12-26T23:41:10.535Z,101160.38
2022-12-26T23:43:38.654Z,101159.53
2022-12-26T23:46:10.751Z,101165.09
2022-12-26T23:48:38.943Z,101165.09
2022-12-26T23:51:09.353Z,101163.69
2022-12-26T23:53:37.698Z,101183.38
2022-12-26T23:56:08.866Z,101181.53
2022-12-26T23:58:40.084Z,101181.56
